sensor_id;sensor_type;location;lat;lon;timestamp;P1;durP1;ratioP1;P2;durP2;ratioP2
42742;SDS011;28397;44.552;-0.848;2023-05-10T00:01:04;23.48;;;4.47;;
42742;SDS011;28397;44.552;-0.848;2023-05-10T00:03:30;16.88;;;4.30;;
42742;SDS011;28397;44.552;-0.848;2023-05-10T00:05:56;15.77;;;4.10;;
42742;SDS011;28397;44.552;-0.848;2023-05-10T00:08:22;18.10;;;4.50;;
42742;SDS011;28397;44.552;-0.848;2023-05-10T00:10:48;20.77;;;4.47;;
42742;SDS011;28397;44.552;-0.848;2023-05-10T00:13:13;15.38;;;4.05;;
42742;SDS011;28397;44.552;-0.848;2023-05-10T00:15:39;19.42;;;4.57;;
42742;SDS011;28397;44.552;-0.848;2023-05-10T00:18:05;19.23;;;3.92;;
42742;SDS011;28397;44.552;-0.848;2023-05-10T00:20:30;16.08;;;3.70;;
42742;SDS011;28397;44.552;-0.848;2023-05-10T00:22:56;20.60;;;4.22;;
42742;SDS011;28397;44.552;-0.848;2023-05-10T00:25:22;23.30;;;4.10;;
42742;SDS011;28397;44.552;-0.848;2023-05-10T00:27:48;18.27;;;4.40;;
42742;SDS011;28397;44.552;-0.848;2023-05-10T00:30:14;21.48;;;5.15;;
42742;SDS011;28397;44.552;-0.848;2023-05-10T00:32:40;16.30;;;3.92;;
42742;SDS011;28397;44.552;-0.848;2023-05-10T00:35:05;18.88;;;4.35;;
42742;SDS011;28397;44.552;-0.848;2023-05-10T00:37:31;16.10;;;4.32;;
42742;SDS011;28397;44.552;-0.848;2023-05-10T00:39:57;16.98;;;3.85;;
42742;SDS011;28397;44.552;-0.848;2023-05-10T00:42:23;21.88;;;4.38;;
42742;SDS011;28397;44.552;-0.848;2023-05-10T00:44:48;19.90;;;4.50;;
42742;SDS011;28397;44.552;-0.848;2023-05-10T00:47:15;24.23;;;4.82;;
42742;SDS011;28397;44.552;-0.848;2023-05-10T00:49:41;20.55;;;4.50;;
42742;SDS011;28397;44.552;-0.848;2023-05-10T00:52:08;23.40;;;4.65;;
42742;SDS011;28397;44.552;-0.848;2023-05-10T00:54:34;20.38;;;4.32;;
42742;SDS011;28397;44.552;-0.848;2023-05-10T00:57:00;19.52;;;4.05;;
42742;SDS011;28397;44.552;-0.848;2023-05-10T00:59:26;20.23;;;4.15;;
42742;SDS011;28397;44.552;-0.848;2023-05-10T01:01:52;17.48;;;4.00;;
42742;SDS011;28397;44.552;-0.848;2023-05-10T01:04:18;21.27;;;4.25;;
42742;SDS011;28397;44.552;-0.848;2023-05-10T01:06:50;19.17;;;4.75;;
42742;SDS011;28397;44.552;-0.848;2023-05-10T01:09:16;20.73;;;4.18;;
42742;SDS011;28397;44.552;-0.848;2023-05-10T01:11:43;17.35;;;4.18;;
42742;SDS011;28397;44.552;-0.848;2023-05-10T01:14:09;19.35;;;4.40;;
42742;SDS011;28397;44.552;-0.848;2023-05-10T01:16:38;20.85;;;4.47;;
42742;SDS011;28397;44.552;-0.848;2023-05-10T01:19:11;22.20;;;4.35;;
42742;SDS011;28397;44.552;-0.848;2023-05-10T01:36:06;20.05;;;4.47;;
42742;SDS011;28397;44.552;-0.848;2023-05-10T01:38:50;15.80;;;3.92;;
42742;SDS011;28397;44.552;-0.848;2023-05-10T01:41:27;22.48;;;4.53;;
42742;SDS011;28397;44.552;-0.848;2023-05-10T01:44:07;16.40;;;4.35;;
42742;SDS011;28397;44.552;-0.848;2023-05-10T01:46:35;22.45;;;5.15;;
42742;SDS011;28397;44.552;-0.848;2023-05-10T01:49:03;21.23;;;4.68;;
42742;SDS011;28397;44.552;-0.848;2023-05-10T01:51:53;22.73;;;5.07;;
42742;SDS011;28397;44.552;-0.848;2023-05-10T01:54:24;26.25;;;5.20;;
42742;SDS011;28397;44.552;-0.848;2023-05-10T01:56:55;17.67;;;4.53;;
42742;SDS011;28397;44.552;-0.848;2023-05-10T01:59:24;19.55;;;5.05;;
42742;SDS011;28397;44.552;-0.848;2023-05-10T02:01:54;24.33;;;5.03;;
42742;SDS011;28397;44.552;-0.848;2023-05-10T02:04:24;22.00;;;5.30;;
42742;SDS011;28397;44.552;-0.848;2023-05-10T02:06:51;22.90;;;5.22;;
42742;SDS011;28397;44.552;-0.848;2023-05-10T02:09:19;28.58;;;5.60;;
42742;SDS011;28397;44.552;-0.848;2023-05-10T02:11:46;27.52;;;5.50;;
42742;SDS011;28397;44.552;-0.848;2023-05-10T02:14:14;21.00;;;5.10;;
42742;SDS011;28397;44.552;-0.848;2023-05-10T02:16:41;24.83;;;5.35;;
42742;SDS011;28397;44.552;-0.848;2023-05-10T02:19:09;21.50;;;5.15;;
42742;SDS011;28397;44.552;-0.848;2023-05-10T02:21:37;22.02;;;4.47;;
42742;SDS011;28397;44.552;-0.848;2023-05-10T02:24:04;20.92;;;4.45;;
42742;SDS011;28397;44.552;-0.848;2023-05-10T02:26:31;21.35;;;4.97;;
42742;SDS011;28397;44.552;-0.848;2023-05-10T02:28:59;23.35;;;4.90;;
42742;SDS011;28397;44.552;-0.848;2023-05-10T02:31:28;19.48;;;4.65;;
42742;SDS011;28397;44.552;-0.848;2023-05-10T02:33:56;19.77;;;4.82;;
42742;SDS011;28397;44.552;-0.848;2023-05-10T02:36:23;20.50;;;4.55;;
42742;SDS011;28397;44.552;-0.848;2023-05-10T02:38:52;25.02;;;5.20;;
42742;SDS011;28397;44.552;-0.848;2023-05-10T02:41:19;18.83;;;4.18;;
42742;SDS011;28397;44.552;-0.848;2023-05-10T02:43:49;18.20;;;4.22;;
42742;SDS011;28397;44.552;-0.848;2023-05-10T02:46:17;20.48;;;5.03;;
42742;SDS011;28397;44.552;-0.848;2023-05-10T02:48:43;22.65;;;5.68;;
42742;SDS011;28397;44.552;-0.848;2023-05-10T02:51:09;26.38;;;6.22;;
42742;SDS011;28397;44.552;-0.848;2023-05-10T02:53:38;21.13;;;4.90;;
42742;SDS011;28397;44.552;-0.848;2023-05-10T02:56:13;20.67;;;4.75;;
42742;SDS011;28397;44.552;-0.848;2023-05-10T02:58:42;24.23;;;4.80;;
42742;SDS011;28397;44.552;-0.848;2023-05-10T03:01:08;22.30;;;5.28;;
42742;SDS011;28397;44.552;-0.848;2023-05-10T03:03:33;23.33;;;4.82;;
42742;SDS011;28397;44.552;-0.848;2023-05-10T03:05:59;22.40;;;4.82;;
42742;SDS011;28397;44.552;-0.848;2023-05-10T03:08:25;24.30;;;5.05;;
42742;SDS011;28397;44.552;-0.848;2023-05-10T03:13:36;15.98;;;4.13;;
42742;SDS011;28397;44.552;-0.848;2023-05-10T03:16:15;23.50;;;5.13;;
42742;SDS011;28397;44.552;-0.848;2023-05-10T03:21:22;21.90;;;4.97;;
42742;SDS011;28397;44.552;-0.848;2023-05-10T03:23:52;27.52;;;5.68;;
42742;SDS011;28397;44.552;-0.848;2023-05-10T03:26:32;23.73;;;4.75;;
42742;SDS011;28397;44.552;-0.848;2023-05-10T03:28:58;21.77;;;4.95;;
42742;SDS011;28397;44.552;-0.848;2023-05-10T03:31:25;22.70;;;5.20;;
42742;SDS011;28397;44.552;-0.848;2023-05-10T03:33:51;22.30;;;4.60;;
42742;SDS011;28397;44.552;-0.848;2023-05-10T03:36:17;23.05;;;4.68;;
42742;SDS011;28397;44.552;-0.848;2023-05-10T03:38:44;25.35;;;5.32;;
42742;SDS011;28397;44.552;-0.848;2023-05-10T03:41:09;19.48;;;4.38;;
42742;SDS011;28397;44.552;-0.848;2023-05-10T03:43:35;19.55;;;4.70;;
42742;SDS011;28397;44.552;-0.848;2023-05-10T03:46:04;22.15;;;4.97;;
42742;SDS011;28397;44.552;-0.848;2023-05-10T03:50:57;18.33;;;4.25;;
42742;SDS011;28397;44.552;-0.848;2023-05-10T03:53:23;21.58;;;4.45;;
42742;SDS011;28397;44.552;-0.848;2023-05-10T03:55:49;22.05;;;4.57;;
42742;SDS011;28397;44.552;-0.848;2023-05-10T03:58:15;19.92;;;4.38;;
42742;SDS011;28397;44.552;-0.848;2023-05-10T04:00:41;24.08;;;4.70;;
42742;SDS011;28397;44.552;-0.848;2023-05-10T04:03:10;21.17;;;4.40;;
42742;SDS011;28397;44.552;-0.848;2023-05-10T04:05:38;19.77;;;4.57;;
42742;SDS011;28397;44.552;-0.848;2023-05-10T04:08:04;22.23;;;4.90;;
42742;SDS011;28397;44.552;-0.848;2023-05-10T04:10:30;21.30;;;4.88;;
42742;SDS011;28397;44.552;-0.848;2023-05-10T04:12:56;23.60;;;5.00;;
42742;SDS011;28397;44.552;-0.848;2023-05-10T04:15:21;20.10;;;5.43;;
42742;SDS011;28397;44.552;-0.848;2023-05-10T04:17:48;17.33;;;4.15;;
42742;SDS011;28397;44.552;-0.848;2023-05-10T04:20:14;25.63;;;5.55;;
42742;SDS011;28397;44.552;-0.848;2023-05-10T04:22:40;20.08;;;4.68;;
42742;SDS011;28397;44.552;-0.848;2023-05-10T04:25:06;22.35;;;5.03;;
42742;SDS011;28397;44.552;-0.848;2023-05-10T04:27:32;20.63;;;4.43;;
42742;SDS011;28397;44.552;-0.848;2023-05-10T04:29:58;17.90;;;4.68;;
42742;SDS011;28397;44.552;-0.848;2023-05-10T04:32:23;25.10;;;4.47;;
42742;SDS011;28397;44.552;-0.848;2023-05-10T04:34:49;23.25;;;5.20;;
42742;SDS011;28397;44.552;-0.848;2023-05-10T04:37:16;20.85;;;4.60;;
42742;SDS011;28397;44.552;-0.848;2023-05-10T04:39:42;22.25;;;4.72;;
42742;SDS011;28397;44.552;-0.848;2023-05-10T04:42:08;25.35;;;5.20;;
42742;SDS011;28397;44.552;-0.848;2023-05-10T04:44:34;29.60;;;5.60;;
42742;SDS011;28397;44.552;-0.848;2023-05-10T04:47:00;18.25;;;4.63;;
42742;SDS011;28397;44.552;-0.848;2023-05-10T04:49:27;24.48;;;5.15;;
42742;SDS011;28397;44.552;-0.848;2023-05-10T04:51:53;22.65;;;4.72;;
42742;SDS011;28397;44.552;-0.848;2023-05-10T04:54:18;24.00;;;4.85;;
42742;SDS011;28397;44.552;-0.848;2023-05-10T04:56:44;22.55;;;4.70;;
42742;SDS011;28397;44.552;-0.848;2023-05-10T04:59:10;28.48;;;5.32;;
42742;SDS011;28397;44.552;-0.848;2023-05-10T05:01:36;22.23;;;4.40;;
42742;SDS011;28397;44.552;-0.848;2023-05-10T05:04:01;21.50;;;4.68;;
42742;SDS011;28397;44.552;-0.848;2023-05-10T05:06:27;21.50;;;4.93;;
42742;SDS011;28397;44.552;-0.848;2023-05-10T05:08:53;25.80;;;4.97;;
42742;SDS011;28397;44.552;-0.848;2023-05-10T05:11:18;19.33;;;4.50;;
42742;SDS011;28397;44.552;-0.848;2023-05-10T05:13:44;19.45;;;5.15;;
42742;SDS011;28397;44.552;-0.848;2023-05-10T05:16:10;23.75;;;5.55;;
42742;SDS011;28397;44.552;-0.848;2023-05-10T05:18:36;21.85;;;5.72;;
42742;SDS011;28397;44.552;-0.848;2023-05-10T05:21:02;18.83;;;4.70;;
42742;SDS011;28397;44.552;-0.848;2023-05-10T05:23:27;22.88;;;5.28;;
42742;SDS011;28397;44.552;-0.848;2023-05-10T05:25:53;23.92;;;5.03;;
42742;SDS011;28397;44.552;-0.848;2023-05-10T05:28:22;22.88;;;5.13;;
42742;SDS011;28397;44.552;-0.848;2023-05-10T05:30:47;20.00;;;4.97;;
42742;SDS011;28397;44.552;-0.848;2023-05-10T05:33:13;23.33;;;5.30;;
42742;SDS011;28397;44.552;-0.848;2023-05-10T05:35:40;21.83;;;5.05;;
42742;SDS011;28397;44.552;-0.848;2023-05-10T05:38:07;16.02;;;4.30;;
42742;SDS011;28397;44.552;-0.848;2023-05-10T05:40:33;21.23;;;5.00;;
42742;SDS011;28397;44.552;-0.848;2023-05-10T05:42:59;18.02;;;4.43;;
42742;SDS011;28397;44.552;-0.848;2023-05-10T05:45:25;22.80;;;5.00;;
42742;SDS011;28397;44.552;-0.848;2023-05-10T05:47:50;21.15;;;5.32;;
42742;SDS011;28397;44.552;-0.848;2023-05-10T05:50:16;21.90;;;4.75;;
42742;SDS011;28397;44.552;-0.848;2023-05-10T05:52:42;20.50;;;5.18;;
42742;SDS011;28397;44.552;-0.848;2023-05-10T05:55:08;20.85;;;5.35;;
42742;SDS011;28397;44.552;-0.848;2023-05-10T05:57:33;19.15;;;4.72;;
42742;SDS011;28397;44.552;-0.848;2023-05-10T05:59:59;18.92;;;4.38;;
42742;SDS011;28397;44.552;-0.848;2023-05-10T06:02:25;19.30;;;5.45;;
42742;SDS011;28397;44.552;-0.848;2023-05-10T06:04:50;16.10;;;4.43;;
42742;SDS011;28397;44.552;-0.848;2023-05-10T06:07:16;19.83;;;4.45;;
42742;SDS011;28397;44.552;-0.848;2023-05-10T06:09:41;21.70;;;5.03;;
42742;SDS011;28397;44.552;-0.848;2023-05-10T06:12:07;14.50;;;4.18;;
42742;SDS011;28397;44.552;-0.848;2023-05-10T06:14:33;16.15;;;3.92;;
42742;SDS011;28397;44.552;-0.848;2023-05-10T06:16:58;19.40;;;4.28;;
42742;SDS011;28397;44.552;-0.848;2023-05-10T06:19:25;17.00;;;4.43;;
42742;SDS011;28397;44.552;-0.848;2023-05-10T06:21:51;15.77;;;3.90;;
42742;SDS011;28397;44.552;-0.848;2023-05-10T06:24:17;14.90;;;4.03;;
42742;SDS011;28397;44.552;-0.848;2023-05-10T06:26:42;16.02;;;4.05;;
42742;SDS011;28397;44.552;-0.848;2023-05-10T06:29:08;18.30;;;4.25;;
42742;SDS011;28397;44.552;-0.848;2023-05-10T06:31:34;18.50;;;4.43;;
42742;SDS011;28397;44.552;-0.848;2023-05-10T06:33:59;21.70;;;4.72;;
42742;SDS011;28397;44.552;-0.848;2023-05-10T06:36:25;20.17;;;4.38;;
42742;SDS011;28397;44.552;-0.848;2023-05-10T06:38:52;15.80;;;4.68;;
42742;SDS011;28397;44.552;-0.848;2023-05-10T06:41:18;18.77;;;5.70;;
42742;SDS011;28397;44.552;-0.848;2023-05-10T06:43:44;19.65;;;5.65;;
42742;SDS011;28397;44.552;-0.848;2023-05-10T06:46:09;26.10;;;6.80;;
42742;SDS011;28397;44.552;-0.848;2023-05-10T06:48:35;20.58;;;6.22;;
42742;SDS011;28397;44.552;-0.848;2023-05-10T06:51:01;24.85;;;5.80;;
42742;SDS011;28397;44.552;-0.848;2023-05-10T06:53:26;18.85;;;5.22;;
42742;SDS011;28397;44.552;-0.848;2023-05-10T06:55:52;22.83;;;5.00;;
42742;SDS011;28397;44.552;-0.848;2023-05-10T06:58:18;21.17;;;5.10;;
42742;SDS011;28397;44.552;-0.848;2023-05-10T07:00:43;20.05;;;4.85;;
42742;SDS011;28397;44.552;-0.848;2023-05-10T07:03:10;21.73;;;5.20;;
42742;SDS011;28397;44.552;-0.848;2023-05-10T07:05:36;25.90;;;5.97;;
42742;SDS011;28397;44.552;-0.848;2023-05-10T07:08:01;20.55;;;5.25;;
42742;SDS011;28397;44.552;-0.848;2023-05-10T07:10:27;20.73;;;4.63;;
42742;SDS011;28397;44.552;-0.848;2023-05-10T07:12:53;16.65;;;4.38;;
42742;SDS011;28397;44.552;-0.848;2023-05-10T07:15:19;15.85;;;4.13;;
42742;SDS011;28397;44.552;-0.848;2023-05-10T07:17:44;12.43;;;3.38;;
42742;SDS011;28397;44.552;-0.848;2023-05-10T07:20:10;15.98;;;3.70;;
42742;SDS011;28397;44.552;-0.848;2023-05-10T07:22:36;17.77;;;4.47;;
42742;SDS011;28397;44.552;-0.848;2023-05-10T07:25:02;17.52;;;3.80;;
42742;SDS011;28397;44.552;-0.848;2023-05-10T07:27:28;21.42;;;4.63;;
42742;SDS011;28397;44.552;-0.848;2023-05-10T07:29:53;19.33;;;4.35;;
42742;SDS011;28397;44.552;-0.848;2023-05-10T07:32:19;22.15;;;5.10;;
42742;SDS011;28397;44.552;-0.848;2023-05-10T07:34:46;21.23;;;5.30;;
42742;SDS011;28397;44.552;-0.848;2023-05-10T07:37:11;21.75;;;6.35;;
42742;SDS011;28397;44.552;-0.848;2023-05-10T07:39:37;24.63;;;7.70;;
42742;SDS011;28397;44.552;-0.848;2023-05-10T07:42:03;18.23;;;5.63;;
42742;SDS011;28397;44.552;-0.848;2023-05-10T07:44:28;20.13;;;5.30;;
42742;SDS011;28397;44.552;-0.848;2023-05-10T07:46:54;23.55;;;5.20;;
42742;SDS011;28397;44.552;-0.848;2023-05-10T07:49:20;23.45;;;5.03;;
42742;SDS011;28397;44.552;-0.848;2023-05-10T07:51:46;17.38;;;4.95;;
42742;SDS011;28397;44.552;-0.848;2023-05-10T07:54:12;20.13;;;4.28;;
42742;SDS011;28397;44.552;-0.848;2023-05-10T07:56:38;18.50;;;4.22;;
42742;SDS011;28397;44.552;-0.848;2023-05-10T07:59:06;22.80;;;5.55;;
42742;SDS011;28397;44.552;-0.848;2023-05-10T08:01:33;20.08;;;4.45;;
42742;SDS011;28397;44.552;-0.848;2023-05-10T08:03:59;22.98;;;4.65;;
42742;SDS011;28397;44.552;-0.848;2023-05-10T08:06:26;21.55;;;4.78;;
42742;SDS011;28397;44.552;-0.848;2023-05-10T08:08:53;26.05;;;4.70;;
42742;SDS011;28397;44.552;-0.848;2023-05-10T08:11:19;21.35;;;4.28;;
42742;SDS011;28397;44.552;-0.848;2023-05-10T08:13:45;21.63;;;4.80;;
42742;SDS011;28397;44.552;-0.848;2023-05-10T08:16:12;21.23;;;4.45;;
42742;SDS011;28397;44.552;-0.848;2023-05-10T08:18:38;17.75;;;4.63;;
42742;SDS011;28397;44.552;-0.848;2023-05-10T08:21:04;22.02;;;5.00;;
42742;SDS011;28397;44.552;-0.848;2023-05-10T08:23:30;17.17;;;4.60;;
42742;SDS011;28397;44.552;-0.848;2023-05-10T08:25:56;20.58;;;4.68;;
42742;SDS011;28397;44.552;-0.848;2023-05-10T08:28:22;21.73;;;4.90;;
42742;SDS011;28397;44.552;-0.848;2023-05-10T08:30:47;20.58;;;4.75;;
42742;SDS011;28397;44.552;-0.848;2023-05-10T08:33:14;19.15;;;4.70;;
42742;SDS011;28397;44.552;-0.848;2023-05-10T08:35:40;19.15;;;5.13;;
42742;SDS011;28397;44.552;-0.848;2023-05-10T08:38:06;22.65;;;4.72;;
42742;SDS011;28397;44.552;-0.848;2023-05-10T08:40:32;20.52;;;4.80;;
42742;SDS011;28397;44.552;-0.848;2023-05-10T08:43:09;22.02;;;5.25;;
42742;SDS011;28397;44.552;-0.848;2023-05-10T08:45:40;23.08;;;4.78;;
42742;SDS011;28397;44.552;-0.848;2023-05-10T08:48:07;18.88;;;4.65;;
42742;SDS011;28397;44.552;-0.848;2023-05-10T08:50:37;17.98;;;4.30;;
42742;SDS011;28397;44.552;-0.848;2023-05-10T08:53:13;23.92;;;4.50;;
42742;SDS011;28397;44.552;-0.848;2023-05-10T08:55:41;17.77;;;4.07;;
42742;SDS011;28397;44.552;-0.848;2023-05-10T08:58:08;19.20;;;5.07;;
42742;SDS011;28397;44.552;-0.848;2023-05-10T09:00:34;20.17;;;5.28;;
42742;SDS011;28397;44.552;-0.848;2023-05-10T09:03:01;21.25;;;4.55;;
42742;SDS011;28397;44.552;-0.848;2023-05-10T09:05:27;18.80;;;4.35;;
42742;SDS011;28397;44.552;-0.848;2023-05-10T09:07:53;21.88;;;4.75;;
42742;SDS011;28397;44.552;-0.848;2023-05-10T09:10:19;14.88;;;4.20;;
42742;SDS011;28397;44.552;-0.848;2023-05-10T09:12:46;20.48;;;4.35;;
42742;SDS011;28397;44.552;-0.848;2023-05-10T09:15:15;19.10;;;4.28;;
42742;SDS011;28397;44.552;-0.848;2023-05-10T09:17:42;21.30;;;4.72;;
42742;SDS011;28397;44.552;-0.848;2023-05-10T09:20:09;19.75;;;4.30;;
42742;SDS011;28397;44.552;-0.848;2023-05-10T09:22:34;13.95;;;3.53;;
42742;SDS011;28397;44.552;-0.848;2023-05-10T09:25:18;15.63;;;3.67;;
42742;SDS011;28397;44.552;-0.848;2023-05-10T09:27:45;14.10;;;3.80;;
42742;SDS011;28397;44.552;-0.848;2023-05-10T09:30:28;14.90;;;3.35;;
42742;SDS011;28397;44.552;-0.848;2023-05-10T09:32:55;15.40;;;3.92;;
42742;SDS011;28397;44.552;-0.848;2023-05-10T09:35:25;15.50;;;4.25;;
42742;SDS011;28397;44.552;-0.848;2023-05-10T09:37:53;14.98;;;4.18;;
42742;SDS011;28397;44.552;-0.848;2023-05-10T09:40:21;18.58;;;3.92;;
42742;SDS011;28397;44.552;-0.848;2023-05-10T09:45:23;16.27;;;3.70;;
42742;SDS011;28397;44.552;-0.848;2023-05-10T09:47:49;13.60;;;3.55;;
42742;SDS011;28397;44.552;-0.848;2023-05-10T09:50:15;16.27;;;4.18;;
42742;SDS011;28397;44.552;-0.848;2023-05-10T09:52:51;18.77;;;4.55;;
42742;SDS011;28397;44.552;-0.848;2023-05-10T09:55:22;17.98;;;3.75;;
42742;SDS011;28397;44.552;-0.848;2023-05-10T09:57:49;17.58;;;3.92;;
42742;SDS011;28397;44.552;-0.848;2023-05-10T10:00:26;14.15;;;3.63;;
42742;SDS011;28397;44.552;-0.848;2023-05-10T10:02:56;18.58;;;4.28;;
42742;SDS011;28397;44.552;-0.848;2023-05-10T10:05:32;23.35;;;4.95;;
42742;SDS011;28397;44.552;-0.848;2023-05-10T10:08:00;17.05;;;3.80;;
42742;SDS011;28397;44.552;-0.848;2023-05-10T10:10:27;16.35;;;4.22;;
42742;SDS011;28397;44.552;-0.848;2023-05-10T10:12:54;14.07;;;3.95;;
42742;SDS011;28397;44.552;-0.848;2023-05-10T10:15:21;13.55;;;3.33;;
42742;SDS011;28397;44.552;-0.848;2023-05-10T10:17:48;14.93;;;4.32;;
42742;SDS011;28397;44.552;-0.848;2023-05-10T10:20:15;15.55;;;3.20;;
42742;SDS011;28397;44.552;-0.848;2023-05-10T10:22:41;16.88;;;3.83;;
42742;SDS011;28397;44.552;-0.848;2023-05-10T10:25:09;17.33;;;4.75;;
42742;SDS011;28397;44.552;-0.848;2023-05-10T10:32:54;15.15;;;3.50;;
42742;SDS011;28397;44.552;-0.848;2023-05-10T10:35:43;10.02;;;2.70;;
42742;SDS011;28397;44.552;-0.848;2023-05-10T10:38:12;16.00;;;2.88;;
42742;SDS011;28397;44.552;-0.848;2023-05-10T10:40:38;10.75;;;2.92;;
42742;SDS011;28397;44.552;-0.848;2023-05-10T10:43:26;10.23;;;2.88;;
42742;SDS011;28397;44.552;-0.848;2023-05-10T10:48:39;9.88;;;2.90;;
42742;SDS011;28397;44.552;-0.848;2023-05-10T10:51:16;14.63;;;3.40;;
42742;SDS011;28397;44.552;-0.848;2023-05-10T10:53:42;16.85;;;4.25;;
42742;SDS011;28397;44.552;-0.848;2023-05-10T10:56:09;15.45;;;3.63;;
42742;SDS011;28397;44.552;-0.848;2023-05-10T10:58:38;16.60;;;4.65;;
42742;SDS011;28397;44.552;-0.848;2023-05-10T11:06:40;15.48;;;3.80;;
42742;SDS011;28397;44.552;-0.848;2023-05-10T11:09:08;12.15;;;3.65;;
42742;SDS011;28397;44.552;-0.848;2023-05-10T11:11:52;14.98;;;4.05;;
42742;SDS011;28397;44.552;-0.848;2023-05-10T11:14:23;17.60;;;4.22;;
42742;SDS011;28397;44.552;-0.848;2023-05-10T11:16:49;11.75;;;3.15;;
42742;SDS011;28397;44.552;-0.848;2023-05-10T11:19:15;7.20;;;2.53;;
42742;SDS011;28397;44.552;-0.848;2023-05-10T11:21:46;10.88;;;2.78;;
42742;SDS011;28397;44.552;-0.848;2023-05-10T11:24:31;12.90;;;3.00;;
42742;SDS011;28397;44.552;-0.848;2023-05-10T11:26:56;9.18;;;2.72;;
42742;SDS011;28397;44.552;-0.848;2023-05-10T11:29:22;12.13;;;3.20;;
42742;SDS011;28397;44.552;-0.848;2023-05-10T11:31:51;14.85;;;3.88;;
42742;SDS011;28397;44.552;-0.848;2023-05-10T11:34:23;16.45;;;3.75;;
42742;SDS011;28397;44.552;-0.848;2023-05-10T11:36:59;12.27;;;3.45;;
42742;SDS011;28397;44.552;-0.848;2023-05-10T11:39:28;15.88;;;3.38;;
42742;SDS011;28397;44.552;-0.848;2023-05-10T11:41:55;13.82;;;3.75;;
42742;SDS011;28397;44.552;-0.848;2023-05-10T11:44:21;11.95;;;2.88;;
42742;SDS011;28397;44.552;-0.848;2023-05-10T11:46:47;15.60;;;4.32;;
42742;SDS011;28397;44.552;-0.848;2023-05-10T11:49:14;14.65;;;3.92;;
42742;SDS011;28397;44.552;-0.848;2023-05-10T11:51:39;15.35;;;3.85;;
42742;SDS011;28397;44.552;-0.848;2023-05-10T11:54:08;12.75;;;3.30;;
42742;SDS011;28397;44.552;-0.848;2023-05-10T11:56:37;15.55;;;4.28;;
42742;SDS011;28397;44.552;-0.848;2023-05-10T11:59:04;11.88;;;3.22;;
42742;SDS011;28397;44.552;-0.848;2023-05-10T12:01:30;13.02;;;3.25;;
42742;SDS011;28397;44.552;-0.848;2023-05-10T12:03:56;10.52;;;2.38;;
42742;SDS011;28397;44.552;-0.848;2023-05-10T12:06:25;9.85;;;2.95;;
42742;SDS011;28397;44.552;-0.848;2023-05-10T12:08:53;10.60;;;3.35;;
42742;SDS011;28397;44.552;-0.848;2023-05-10T12:11:20;9.68;;;2.55;;
42742;SDS011;28397;44.552;-0.848;2023-05-10T12:13:49;10.27;;;3.38;;
42742;SDS011;28397;44.552;-0.848;2023-05-10T12:16:16;12.73;;;3.00;;
42742;SDS011;28397;44.552;-0.848;2023-05-10T12:18:44;11.13;;;3.20;;
42742;SDS011;28397;44.552;-0.848;2023-05-10T12:21:11;10.18;;;2.80;;
42742;SDS011;28397;44.552;-0.848;2023-05-10T12:23:37;11.60;;;3.13;;
42742;SDS011;28397;44.552;-0.848;2023-05-10T12:26:06;9.93;;;3.20;;
42742;SDS011;28397;44.552;-0.848;2023-05-10T12:28:34;12.23;;;3.80;;
42742;SDS011;28397;44.552;-0.848;2023-05-10T12:31:01;12.80;;;3.55;;
42742;SDS011;28397;44.552;-0.848;2023-05-10T12:33:27;14.55;;;4.10;;
42742;SDS011;28397;44.552;-0.848;2023-05-10T12:36:10;11.73;;;3.10;;
42742;SDS011;28397;44.552;-0.848;2023-05-10T12:38:40;6.72;;;1.98;;
42742;SDS011;28397;44.552;-0.848;2023-05-10T12:41:12;5.45;;;2.17;;
42742;SDS011;28397;44.552;-0.848;2023-05-10T12:43:40;9.00;;;2.60;;
42742;SDS011;28397;44.552;-0.848;2023-05-10T12:48:36;13.05;;;3.72;;
42742;SDS011;28397;44.552;-0.848;2023-05-10T12:51:03;11.80;;;3.30;;
42742;SDS011;28397;44.552;-0.848;2023-05-10T12:53:29;12.18;;;3.90;;
42742;SDS011;28397;44.552;-0.848;2023-05-10T12:55:55;14.88;;;3.20;;
42742;SDS011;28397;44.552;-0.848;2023-05-10T12:58:21;10.45;;;2.97;;
42742;SDS011;28397;44.552;-0.848;2023-05-10T13:00:47;14.10;;;3.17;;
42742;SDS011;28397;44.552;-0.848;2023-05-10T13:03:13;14.57;;;3.97;;
42742;SDS011;28397;44.552;-0.848;2023-05-10T13:05:39;12.00;;;3.42;;
42742;SDS011;28397;44.552;-0.848;2023-05-10T13:08:05;10.52;;;3.13;;
42742;SDS011;28397;44.552;-0.848;2023-05-10T13:10:30;11.50;;;3.30;;
42742;SDS011;28397;44.552;-0.848;2023-05-10T13:12:57;9.65;;;2.85;;
42742;SDS011;28397;44.552;-0.848;2023-05-10T13:15:23;11.73;;;3.10;;
42742;SDS011;28397;44.552;-0.848;2023-05-10T13:17:49;11.18;;;2.70;;
42742;SDS011;28397;44.552;-0.848;2023-05-10T13:20:15;11.07;;;3.13;;
42742;SDS011;28397;44.552;-0.848;2023-05-10T13:22:41;10.95;;;2.80;;
42742;SDS011;28397;44.552;-0.848;2023-05-10T13:25:08;10.60;;;2.88;;
42742;SDS011;28397;44.552;-0.848;2023-05-10T13:27:34;13.38;;;3.00;;
42742;SDS011;28397;44.552;-0.848;2023-05-10T13:29:59;12.18;;;3.47;;
42742;SDS011;28397;44.552;-0.848;2023-05-10T13:32:26;12.15;;;3.45;;
42742;SDS011;28397;44.552;-0.848;2023-05-10T13:34:51;13.10;;;3.35;;
42742;SDS011;28397;44.552;-0.848;2023-05-10T13:37:17;9.65;;;2.90;;
42742;SDS011;28397;44.552;-0.848;2023-05-10T13:39:43;14.45;;;3.35;;
42742;SDS011;28397;44.552;-0.848;2023-05-10T13:42:09;13.43;;;3.35;;
42742;SDS011;28397;44.552;-0.848;2023-05-10T13:44:34;12.93;;;3.28;;
42742;SDS011;28397;44.552;-0.848;2023-05-10T13:47:01;12.50;;;3.33;;
42742;SDS011;28397;44.552;-0.848;2023-05-10T13:49:26;13.32;;;3.17;;
42742;SDS011;28397;44.552;-0.848;2023-05-10T13:51:52;12.48;;;3.20;;
42742;SDS011;28397;44.552;-0.848;2023-05-10T13:54:18;10.10;;;3.35;;
42742;SDS011;28397;44.552;-0.848;2023-05-10T13:56:44;14.48;;;3.00;;
42742;SDS011;28397;44.552;-0.848;2023-05-10T13:59:12;11.93;;;3.45;;
42742;SDS011;28397;44.552;-0.848;2023-05-10T14:01:39;13.32;;;3.03;;
42742;SDS011;28397;44.552;-0.848;2023-05-10T14:04:05;13.98;;;3.80;;
42742;SDS011;28397;44.552;-0.848;2023-05-10T14:06:32;12.25;;;3.80;;
42742;SDS011;28397;44.552;-0.848;2023-05-10T14:08:58;10.20;;;3.50;;
42742;SDS011;28397;44.552;-0.848;2023-05-10T14:11:23;10.90;;;3.20;;
42742;SDS011;28397;44.552;-0.848;2023-05-10T14:13:49;11.20;;;3.28;;
42742;SDS011;28397;44.552;-0.848;2023-05-10T14:16:15;12.85;;;3.55;;
42742;SDS011;28397;44.552;-0.848;2023-05-10T14:18:41;12.30;;;3.38;;
42742;SDS011;28397;44.552;-0.848;2023-05-10T14:21:06;13.02;;;3.65;;
42742;SDS011;28397;44.552;-0.848;2023-05-10T14:23:32;11.30;;;3.35;;
42742;SDS011;28397;44.552;-0.848;2023-05-10T14:25:58;10.60;;;3.25;;
42742;SDS011;28397;44.552;-0.848;2023-05-10T14:28:23;11.32;;;3.45;;
42742;SDS011;28397;44.552;-0.848;2023-05-10T14:30:50;10.75;;;3.10;;
42742;SDS011;28397;44.552;-0.848;2023-05-10T14:33:16;10.52;;;3.05;;
42742;SDS011;28397;44.552;-0.848;2023-05-10T14:35:42;13.25;;;3.58;;
42742;SDS011;28397;44.552;-0.848;2023-05-10T14:38:07;13.77;;;3.50;;
42742;SDS011;28397;44.552;-0.848;2023-05-10T14:40:33;13.85;;;3.90;;
42742;SDS011;28397;44.552;-0.848;2023-05-10T14:42:59;15.48;;;4.35;;
42742;SDS011;28397;44.552;-0.848;2023-05-10T14:45:25;13.98;;;4.10;;
42742;SDS011;28397;44.552;-0.848;2023-05-10T14:47:51;13.45;;;3.50;;
42742;SDS011;28397;44.552;-0.848;2023-05-10T14:50:17;14.73;;;3.78;;
42742;SDS011;28397;44.552;-0.848;2023-05-10T14:52:43;14.18;;;3.70;;
42742;SDS011;28397;44.552;-0.848;2023-05-10T14:55:09;14.60;;;3.78;;
42742;SDS011;28397;44.552;-0.848;2023-05-10T14:57:35;16.40;;;3.75;;
42742;SDS011;28397;44.552;-0.848;2023-05-10T15:00:01;16.00;;;4.18;;
42742;SDS011;28397;44.552;-0.848;2023-05-10T15:02:28;11.70;;;4.35;;